createdAt,value
2023-04-01T00:00:36.161Z,0.33
2023-04-01T00:03:05.800Z,0.40
2023-04-01T00:05:38.171Z,0.53
2023-04-01T00:08:08.419Z,0.40
2023-04-01T00:10:39.844Z,0.30
2023-04-01T00:13:09.477Z,0.40
2023-04-01T00:15:41.383Z,0.70
2023-04-01T00:18:10.331Z,0.33
2023-04-01T00:20:45.041Z,0.30
2023-04-01T00:23:16.246Z,0.30
2023-04-01T00:25:49.832Z,0.47
2023-04-01T00:28:19.540Z,0.50
2023-04-01T00:30:48.362Z,0.50
2023-04-01T00:33:19.569Z,0.73
2023-04-01T00:35:51.607Z,0.40
2023-04-01T00:38:20.409Z,0.30
2023-04-01T00:40:50.919Z,0.53
2023-04-01T00:43:23.365Z,0.20
2023-04-01T00:45:54.143Z,0.50
2023-04-01T00:48:26.677Z,0.47
2023-04-01T00:51:02.422Z,0.40
2023-04-01T00:53:33.700Z,0.70
2023-04-01T00:56:04.809Z,0.37
2023-04-01T00:58:36.707Z,0.40
2023-04-01T01:01:06.901Z,0.47
2023-04-01T01:03:36.391Z,0.40
2023-04-01T01:06:12.792Z,0.40
2023-04-01T01:08:52.143Z,0.50
2023-04-01T01:11:26.693Z,0.70
2023-04-01T01:14:00.135Z,0.30
2023-04-01T01:16:31.856Z,0.23
2023-04-01T01:19:06.427Z,0.20
2023-04-01T01:21:52.221Z,0.30
2023-04-01T01:24:30.966Z,0.30
2023-04-01T01:27:04.194Z,0.33
2023-04-01T01:29:46.058Z,0.30
2023-04-01T01:32:20.194Z,0.40
2023-04-01T01:34:53.665Z,0.27
2023-04-01T01:37:26.392Z,0.20
2023-04-01T01:39:58.062Z,0.33
2023-04-01T01:42:31.205Z,0.57
2023-04-01T01:45:01.896Z,0.40
2023-04-01T01:47:33.914Z,0.50
2023-04-01T01:50:04.820Z,0.40
2023-04-01T01:52:37.342Z,0.40
2023-04-01T01:55:06.672Z,0.50
2023-04-01T01:57:37.073Z,0.50
2023-04-01T02:00:15.850Z,0.40
2023-04-01T02:02:47.216Z,0.43
2023-04-01T02:05:20.496Z,0.40
2023-04-01T02:07:55.220Z,0.30
2023-04-01T02:10:26.676Z,0.30
2023-04-01T02:12:58.118Z,0.50
2023-04-01T02:15:28.899Z,0.23
2023-04-01T02:17:58.234Z,0.40
2023-04-01T02:20:27.933Z,0.60
2023-04-01T02:23:01.150Z,0.37
2023-04-01T02:25:32.583Z,0.40
2023-04-01T02:28:02.958Z,0.40
2023-04-01T02:30:34.975Z,0.40
2023-04-01T02:33:05.144Z,0.40
2023-04-01T02:35:36.290Z,0.57
2023-04-01T02:38:07.510Z,0.20
2023-04-01T02:40:46.607Z,0.50
2023-04-01T02:43:16.253Z,0.50
2023-04-01T02:45:45.303Z,0.70
2023-04-01T02:48:15.604Z,0.40
2023-04-01T02:50:46.106Z,0.30
2023-04-01T02:53:16.904Z,0.40
2023-04-01T02:55:46.970Z,0.53
2023-04-01T02:58:16.864Z,0.80
2023-04-01T03:00:46.286Z,0.73
2023-04-01T03:03:15.817Z,0.67
2023-04-01T03:05:46.303Z,0.80
2023-04-01T03:08:17.041Z,0.50
2023-04-01T03:10:46.475Z,0.70
2023-04-01T03:13:16.032Z,0.40
2023-04-01T03:15:45.259Z,0.60
2023-04-01T03:18:14.570Z,0.50
2023-04-01T03:20:45.294Z,0.40
2023-04-01T03:23:14.435Z,0.57
2023-04-01T03:25:44.700Z,0.40
2023-04-01T03:28:15.308Z,0.50
2023-04-01T03:30:44.532Z,0.47
2023-04-01T03:33:16.069Z,0.60
2023-04-01T03:35:45.164Z,0.57
2023-04-01T03:38:16.920Z,0.67
2023-04-01T03:40:47.890Z,0.70
2023-04-01T03:43:17.878Z,0.70
2023-04-01T03:45:47.509Z,0.40
2023-04-01T03:48:18.161Z,0.40
2023-04-01T03:50:47.527Z,0.20
2023-04-01T03:53:17.063Z,0.30
2023-04-01T03:55:48.230Z,0.30
2023-04-01T03:58:16.998Z,0.50
2023-04-01T04:00:46.234Z,0.20
2023-04-01T04:03:16.260Z,0.50
2023-04-01T04:05:49.401Z,0.60
2023-04-01T04:08:18.864Z,0.30
2023-04-01T04:10:50.546Z,0.40
2023-04-01T04:13:20.947Z,0.40
2023-04-01T04:15:49.942Z,0.40
2023-04-01T04:18:19.435Z,0.70
2023-04-01T04:20:51.674Z,0.30
2023-04-01T04:23:21.435Z,0.50
2023-04-01T04:25:59.086Z,0.50
2023-04-01T04:28:29.251Z,0.70
2023-04-01T04:30:58.946Z,0.50
2023-04-01T04:33:28.341Z,0.30
2023-04-01T04:35:58.626Z,0.50
2023-04-01T04:38:28.875Z,0.40
2023-04-01T04:40:59.568Z,0.40
2023-04-01T04:43:29.587Z,0.30
2023-04-01T04:45:58.761Z,0.50
2023-04-01T04:48:28.909Z,0.30
2023-04-01T04:51:00.139Z,0.60
2023-04-01T04:53:29.529Z,0.40
2023-04-01T04:55:59.755Z,0.70
2023-04-01T04:58:29.185Z,0.40
2023-04-01T05:00:59.018Z,0.60
2023-04-01T05:03:28.217Z,0.40
2023-04-01T05:05:57.896Z,0.23
2023-04-01T05:08:27.417Z,0.53
2023-04-01T05:10:56.761Z,0.50
2023-04-01T05:13:27.682Z,0.53
2023-04-01T05:15:58.078Z,0.30
2023-04-01T05:18:27.368Z,0.43
2023-04-01T05:20:57.702Z,0.47
2023-04-01T05:23:27.464Z,0.47
2023-04-01T05:25:58.050Z,0.30
2023-04-01T05:28:30.167Z,0.40
2023-04-01T05:31:01.523Z,0.50
2023-04-01T05:33:32.381Z,0.40
2023-04-01T05:36:08.664Z,0.70
2023-04-01T05:38:39.086Z,0.47
2023-04-01T05:41:08.268Z,0.20
2023-04-01T05:43:40.953Z,0.20
2023-04-01T05:46:10.641Z,0.27
2023-04-01T05:48:39.700Z,0.43
2023-04-01T05:51:09.404Z,0.97
2023-04-01T05:53:39.447Z,2.27
2023-04-01T05:56:11.023Z,1.20
2023-04-01T05:58:42.584Z,1.10
2023-04-01T06:01:16.179Z,1.03
2023-04-01T06:03:46.530Z,0.80
2023-04-01T06:06:18.263Z,0.60
2023-04-01T06:08:48.790Z,0.80
2023-04-01T06:11:22.767Z,0.80
2023-04-01T06:14:00.870Z,0.70
2023-04-01T06:16:34.215Z,0.53
2023-04-01T06:19:12.836Z,0.70
2023-04-01T06:21:59.387Z,0.80
2023-04-01T06:24:37.288Z,0.50
2023-04-01T06:27:10.942Z,0.90
2023-04-01T06:29:48.357Z,0.70
2023-04-01T06:32:34.997Z,0.60
2023-04-01T06:35:17.651Z,0.60
2023-04-01T06:37:56.223Z,0.77
2023-04-01T06:40:43.387Z,0.70
2023-04-01T06:43:16.370Z,0.50
2023-04-01T06:45:52.024Z,0.40
2023-04-01T06:48:28.510Z,0.30
2023-04-01T06:51:00.088Z,0.37
2023-04-01T06:53:35.415Z,0.40
2023-04-01T06:56:08.735Z,0.20
2023-04-01T06:58:40.156Z,0.27
2023-04-01T07:01:15.885Z,0.23
2023-04-01T07:03:48.117Z,0.20
2023-04-01T07:06:19.439Z,0.20
2023-04-01T07:08:49.482Z,0.17
2023-04-01T07:11:22.117Z,0.10
2023-04-01T07:13:53.616Z,0.50
2023-04-01T07:16:29.849Z,0.50
2023-04-01T07:19:02.022Z,0.30
2023-04-01T07:21:36.012Z,0.40
2023-04-01T07:24:08.572Z,0.40
2023-04-01T07:26:39.044Z,0.30
2023-04-01T07:29:09.108Z,0.53
2023-04-01T07:31:47.020Z,0.20
2023-04-01T07:34:20.634Z,0.30
2023-04-01T07:36:52.389Z,0.50
2023-04-01T07:39:28.565Z,0.20
2023-04-01T07:42:02.410Z,0.33
2023-04-01T07:44:35.068Z,0.20
2023-04-01T07:47:12.177Z,0.23
2023-04-01T07:49:48.032Z,0.30
2023-04-01T07:52:22.098Z,0.33
2023-04-01T07:54:55.131Z,0.37
2023-04-01T07:57:27.025Z,0.30
2023-04-01T08:00:02.604Z,0.20
2023-04-01T08:02:42.372Z,0.20
2023-04-01T08:05:17.749Z,0.10
2023-04-01T08:07:48.907Z,0.20
2023-04-01T08:10:22.392Z,0.30
2023-04-01T08:12:56.501Z,0.20
2023-04-01T08:15:28.610Z,0.20
2023-04-01T08:18:05.557Z,0.10
2023-04-01T08:20:38.613Z,0.20
2023-04-01T08:23:10.984Z,0.23
2023-04-01T08:25:41.891Z,0.20
2023-04-01T08:28:15.001Z,0.13
2023-04-01T08:30:46.243Z,0.20
2023-04-01T08:33:20.070Z,0.20
2023-04-01T08:35:53.312Z,0.20
2023-04-01T08:38:25.280Z,0.20
2023-04-01T08:40:58.990Z,0.20
2023-04-01T08:43:38.386Z,0.30
2023-04-01T08:46:20.331Z,0.20
2023-04-01T08:48:56.776Z,0.10
2023-04-01T08:51:43.768Z,0.33
2023-04-01T08:54:22.472Z,0.20
2023-04-01T08:56:56.966Z,0.33
2023-04-01T08:59:35.415Z,0.70
2023-04-01T09:02:22.204Z,0.20
2023-04-01T09:05:03.561Z,0.17
2023-04-01T09:07:42.855Z,0.20
2023-04-01T09:10:35.563Z,0.30
2023-04-01T09:13:22.924Z,0.30
2023-04-01T09:15:57.461Z,0.33
2023-04-01T09:18:30.532Z,0.40
2023-04-01T09:21:12.256Z,0.30
2023-04-01T09:23:49.903Z,0.50
2023-04-01T09:26:27.428Z,0.50
2023-04-01T09:29:00.950Z,0.50
2023-04-01T09:31:40.631Z,0.20
2023-04-01T09:34:18.731Z,0.20
2023-04-01T09:36:50.475Z,0.10
2023-04-01T09:39:29.502Z,0.27
2023-04-01T09:42:06.692Z,0.30
2023-04-01T09:44:38.213Z,0.30
2023-04-01T09:47:13.195Z,0.30
2023-04-01T09:49:49.763Z,0.20
2023-04-01T09:52:29.159Z,0.40
2023-04-01T09:55:04.111Z,0.30
2023-04-01T09:57:57.951Z,0.20
2023-04-01T10:00:35.669Z,0.20
2023-04-01T10:03:29.818Z,0.30
2023-04-01T10:06:16.086Z,0.30
2023-04-01T10:09:00.106Z,0.20
2023-04-01T10:11:47.423Z,0.30
2023-04-01T10:14:36.038Z,0.10
2023-04-01T10:17:18.904Z,0.30
2023-04-01T10:20:10.576Z,0.30
2023-04-01T10:22:55.217Z,0.10
2023-04-01T10:25:40.752Z,0.30
2023-04-01T10:28:28.578Z,0.17
2023-04-01T10:31:15.486Z,0.27
2023-04-01T10:34:02.445Z,0.30
2023-04-01T10:36:49.490Z,0.40
2023-04-01T10:39:37.750Z,0.33
2023-04-01T10:42:37.448Z,0.20
2023-04-01T10:45:24.371Z,0.20
2023-04-01T10:48:16.263Z,0.50
2023-04-01T10:51:01.777Z,0.40
2023-04-01T10:53:51.978Z,0.20
2023-04-01T10:56:35.591Z,0.23
2023-04-01T10:59:25.718Z,0.40
2023-04-01T11:02:12.543Z,0.50
2023-04-01T11:04:59.171Z,0.23
2023-04-01T11:08:05.451Z,0.30
2023-04-01T11:10:59.229Z,0.30
2023-04-01T11:13:45.479Z,0.20
2023-04-01T11:16:45.156Z,0.30
2023-04-01T11:19:34.316Z,0.13
2023-04-01T11:22:10.908Z,0.20
2023-04-01T11:24:49.852Z,0.20
2023-04-01T11:27:26.894Z,0.30
2023-04-01T11:30:12.725Z,0.20
2023-04-01T11:32:46.109Z,0.23
2023-04-01T11:35:36.724Z,0.20
2023-04-01T11:38:13.124Z,0.20
2023-04-01T11:40:47.980Z,0.20
2023-04-01T11:43:32.493Z,0.10
2023-04-01T11:46:06.351Z,0.10
2023-04-01T11:48:42.338Z,0.10
2023-04-01T11:51:21.925Z,0.10
2023-04-01T11:53:57.268Z,0.10
2023-04-01T11:56:36.121Z,0.10
2023-04-01T11:59:17.084Z,0.10
2023-04-01T12:01:58.894Z,0.13
2023-04-01T12:04:56.570Z,0.20
2023-04-01T12:07:32.192Z,0.20
2023-04-01T12:10:09.226Z,0.20
2023-04-01T12:12:54.040Z,0.20
2023-04-01T12:15:33.151Z,0.20
2023-04-01T12:18:09.079Z,0.20
2023-04-01T12:20:42.921Z,0.33
2023-04-01T12:23:33.144Z,0.20
2023-04-01T12:26:14.212Z,0.27
2023-04-01T12:28:49.247Z,0.13
2023-04-01T12:31:24.636Z,0.40
2023-04-01T12:34:00.386Z,0.20
2023-04-01T12:36:35.146Z,0.30
2023-04-01T12:39:21.258Z,0.20
2023-04-01T12:41:57.820Z,0.20
2023-04-01T12:44:40.301Z,0.30
2023-04-01T12:47:24.403Z,0.30
2023-04-01T12:50:07.116Z,0.10
2023-04-01T12:52:43.184Z,0.20
2023-04-01T12:55:42.743Z,0.30
2023-04-01T12:58:24.811Z,0.30
2023-04-01T13:01:06.082Z,0.30
2023-04-01T13:03:46.285Z,0.20
2023-04-01T13:06:29.316Z,0.20
2023-04-01T13:09:04.355Z,0.20
2023-04-01T13:11:40.281Z,0.40
2023-04-01T13:14:29.207Z,0.10
2023-04-01T13:17:05.039Z,0.20
2023-04-01T13:19:41.981Z,0.20
2023-04-01T13:22:16.247Z,0.40
2023-04-01T13:24:49.921Z,0.40
2023-04-01T13:27:22.444Z,0.30
2023-04-01T13:30:00.738Z,0.30
2023-04-01T13:32:43.240Z,0.30
2023-04-01T13:35:24.237Z,0.40
2023-04-01T13:38:01.517Z,0.30
2023-04-01T13:40:49.251Z,0.30
2023-04-01T13:43:28.339Z,0.40
2023-04-01T13:46:08.036Z,0.30
2023-04-01T13:48:49.202Z,0.30
2023-04-01T13:51:25.816Z,0.53
2023-04-01T13:54:12.384Z,0.40
2023-04-01T13:56:46.734Z,0.37
2023-04-01T13:59:27.473Z,0.30
2023-04-01T14:02:04.840Z,0.20
2023-04-01T14:04:53.696Z,0.20
2023-04-01T14:07:37.908Z,0.30
2023-04-01T14:10:24.515Z,0.30
2023-04-01T14:13:02.424Z,0.20
2023-04-01T14:15:43.001Z,0.20
2023-04-01T14:18:21.772Z,0.07
2023-04-01T14:20:56.936Z,0.30
2023-04-01T14:23:38.035Z,0.20
2023-04-01T14:26:11.035Z,0.40
2023-04-01T14:28:45.695Z,0.20
2023-04-01T14:31:33.420Z,0.40
2023-04-01T14:34:09.684Z,0.40
2023-04-01T14:36:45.066Z,0.20
2023-04-01T14:39:32.587Z,0.20
2023-04-01T14:42:19.059Z,0.10
2023-04-01T14:45:08.419Z,0.30
2023-04-01T14:47:47.042Z,0.30
2023-04-01T14:50:19.797Z,0.23
2023-04-01T14:52:52.839Z,0.37
2023-04-01T14:55:29.729Z,0.30
2023-04-01T14:58:03.164Z,0.30
2023-04-01T15:00:44.297Z,0.30
2023-04-01T15:03:18.247Z,0.30
2023-04-01T15:05:53.135Z,0.40
2023-04-01T15:08:24.543Z,0.20
2023-04-01T15:11:12.152Z,0.30
2023-04-01T15:13:50.427Z,0.33
2023-04-01T15:16:25.200Z,0.40
2023-04-01T15:18:59.936Z,0.40
2023-04-01T15:21:41.704Z,0.30
2023-04-01T15:24:15.382Z,0.47
2023-04-01T15:26:52.018Z,0.33
2023-04-01T15:29:32.516Z,0.30
2023-04-01T15:32:04.874Z,0.30
2023-04-01T15:34:37.591Z,0.73
2023-04-01T15:37:15.132Z,0.33
2023-04-01T15:39:51.998Z,0.40
2023-04-01T15:42:33.616Z,0.20
2023-04-01T15:45:08.010Z,0.20
2023-04-01T15:47:44.846Z,0.40
2023-04-01T15:50:27.135Z,0.30
2023-04-01T15:53:04.748Z,0.23
2023-04-01T15:55:39.160Z,0.20
2023-04-01T15:58:18.587Z,0.40
2023-04-01T16:00:51.307Z,0.30
2023-04-01T16:03:33.218Z,0.30
2023-04-01T16:06:18.276Z,0.27
2023-04-01T16:09:04.399Z,0.20
2023-04-01T16:11:42.164Z,0.50
2023-04-01T16:14:18.295Z,0.20
2023-04-01T16:16:53.957Z,0.23
2023-04-01T16:19:34.396Z,0.30
2023-04-01T16:22:07.555Z,0.10
2023-04-01T16:24:42.538Z,0.20
2023-04-01T16:27:15.462Z,0.30
2023-04-01T16:29:48.103Z,0.30
2023-04-01T16:32:40.168Z,0.10
2023-04-01T16:35:19.813Z,0.20
2023-04-01T16:37:50.695Z,0.10
2023-04-01T16:40:29.028Z,0.30
2023-04-01T16:43:08.847Z,0.40
2023-04-01T16:45:44.638Z,0.43
2023-04-01T16:48:17.277Z,0.13
2023-04-01T16:50:52.344Z,0.30
2023-04-01T16:53:25.450Z,0.20
2023-04-01T16:56:02.291Z,0.30
2023-04-01T16:58:38.438Z,0.20
2023-04-01T17:01:10.286Z,0.40
2023-04-01T17:03:42.109Z,0.30
2023-04-01T17:06:19.329Z,0.20
2023-04-01T17:08:56.711Z,0.40
2023-04-01T17:11:30.898Z,0.10
2023-04-01T17:14:04.660Z,0.20
2023-04-01T17:16:49.531Z,0.30
2023-04-01T17:19:24.464Z,0.40
2023-04-01T17:22:03.436Z,0.20
2023-04-01T17:24:41.011Z,0.30
2023-04-01T17:27:21.022Z,0.50
2023-04-01T17:30:04.761Z,0.50
2023-04-01T17:32:43.141Z,0.30
2023-04-01T17:35:16.852Z,0.70
2023-04-01T17:37:56.122Z,0.50
2023-04-01T17:40:34.773Z,0.30
2023-04-01T17:43:16.093Z,0.30
2023-04-01T17:45:47.618Z,0.30
2023-04-01T17:48:25.121Z,0.13
2023-04-01T17:51:07.022Z,0.20
2023-04-01T17:53:40.761Z,0.30
2023-04-01T17:56:15.548Z,0.30
2023-04-01T17:58:49.601Z,0.33
2023-04-01T18:01:22.687Z,0.20
2023-04-01T18:03:58.900Z,0.10
2023-04-01T18:06:33.635Z,0.30
2023-04-01T18:09:06.455Z,0.17
2023-04-01T18:11:42.307Z,0.37
2023-04-01T18:14:23.756Z,0.20
2023-04-01T18:17:02.324Z,0.30
2023-04-01T18:19:37.272Z,0.23
2023-04-01T18:22:14.240Z,0.20
2023-04-01T18:24:45.626Z,0.30
2023-04-01T18:27:19.977Z,0.30
2023-04-01T18:29:53.679Z,0.30
2023-04-01T18:32:30.580Z,0.30
2023-04-01T18:35:03.332Z,0.13
2023-04-01T18:37:35.510Z,0.20
2023-04-01T18:40:13.878Z,0.20
2023-04-01T18:42:49.107Z,0.20
2023-04-01T18:45:24.734Z,0.20
2023-04-01T18:47:59.039Z,0.10
2023-04-01T18:50:30.931Z,0.20
2023-04-01T18:53:03.243Z,0.20
2023-04-01T18:55:35.382Z,0.10
2023-04-01T18:58:14.907Z,0.30
2023-04-01T19:00:47.792Z,0.37
2023-04-01T19:03:24.284Z,0.30
2023-04-01T19:05:55.455Z,0.20
2023-04-01T19:08:29.234Z,0.10
2023-04-01T19:11:11.297Z,0.23
2023-04-01T19:13:47.869Z,0.10
2023-04-01T19:16:25.328Z,0.30
2023-04-01T19:19:08.208Z,0.20
2023-04-01T19:21:39.823Z,0.27
2023-04-01T19:24:27.949Z,0.20
2023-04-01T19:27:02.750Z,0.20
2023-04-01T19:29:36.593Z,0.30
2023-04-01T19:32:12.357Z,0.23
2023-04-01T19:34:48.364Z,0.13
2023-04-01T19:37:26.611Z,0.20
2023-04-01T19:40:00.116Z,0.30
2023-04-01T19:42:32.919Z,0.33
2023-04-01T19:45:08.122Z,0.30
2023-04-01T19:47:48.970Z,0.60
2023-04-01T19:50:30.366Z,0.20
2023-04-01T19:53:02.311Z,0.40
2023-04-01T19:55:36.809Z,0.30
2023-04-01T19:58:09.653Z,0.40
2023-04-01T20:00:41.017Z,0.43
2023-04-01T20:03:19.097Z,0.30
2023-04-01T20:05:52.396Z,0.50
2023-04-01T20:08:26.318Z,0.43
2023-04-01T20:10:59.758Z,0.50
2023-04-01T20:13:32.709Z,0.40
2023-04-01T20:16:04.000Z,0.47
2023-04-01T20:18:48.724Z,0.70
2023-04-01T20:21:23.973Z,0.67
2023-04-01T20:23:57.219Z,0.43
2023-04-01T20:26:28.631Z,0.63
2023-04-01T20:29:05.768Z,0.57
2023-04-01T20:31:37.776Z,0.60
2023-04-01T20:34:23.473Z,0.67
2023-04-01T20:37:01.466Z,0.40
2023-04-01T20:39:55.474Z,0.60
2023-04-01T20:42:30.708Z,0.50
2023-04-01T20:45:10.694Z,0.37
2023-04-01T20:47:55.404Z,0.40
2023-04-01T20:50:28.520Z,0.30
2023-04-01T20:53:00.263Z,0.17
2023-04-01T20:55:40.825Z,0.50
2023-04-01T20:58:15.600Z,0.40
2023-04-01T21:00:50.845Z,0.40
2023-04-01T21:03:26.502Z,0.50
2023-04-01T21:06:04.014Z,0.40
2023-04-01T21:08:40.303Z,0.60
2023-04-01T21:11:13.391Z,0.50
2023-04-01T21:13:53.283Z,0.53
2023-04-01T21:16:26.993Z,0.60
2023-04-01T21:19:06.819Z,0.40
2023-04-01T21:21:54.349Z,0.47
2023-04-01T21:24:43.924Z,0.73
2023-04-01T21:27:19.117Z,0.50
2023-04-01T21:29:54.747Z,1.07
2023-04-01T21:32:29.351Z,0.80
2023-04-01T21:35:01.368Z,0.50
2023-04-01T21:37:55.056Z,0.60
2023-04-01T21:40:31.635Z,0.53
2023-04-01T21:43:06.077Z,1.00
2023-04-01T21:46:00.895Z,1.00
2023-04-01T21:48:50.794Z,0.90
2023-04-01T21:51:49.422Z,0.80
2023-04-01T21:54:38.064Z,0.70
2023-04-01T21:57:35.194Z,0.90
2023-04-01T22:00:14.666Z,0.70
2023-04-01T22:02:58.375Z,0.80
2023-04-01T22:05:30.522Z,0.60
2023-04-01T22:08:04.364Z,0.40
2023-04-01T22:10:38.368Z,0.90
2023-04-01T22:13:10.428Z,0.50
2023-04-01T22:15:52.312Z,0.47
2023-04-01T22:18:24.476Z,0.73
2023-04-01T22:20:59.158Z,0.67
2023-04-01T22:23:30.714Z,0.37
2023-04-01T22:26:04.153Z,0.57
2023-04-01T22:28:38.071Z,0.50
2023-04-01T22:31:09.719Z,0.20
2023-04-01T22:33:42.503Z,0.30
2023-04-01T22:36:18.046Z,0.27
2023-04-01T22:38:57.750Z,0.20
2023-04-01T22:41:34.292Z,0.73
2023-04-01T22:44:05.190Z,0.23
2023-04-01T22:46:46.013Z,0.30
2023-04-01T22:49:18.290Z,0.50
2023-04-01T22:51:51.038Z,0.40
2023-04-01T22:54:23.476Z,0.37
2023-04-01T22:56:55.227Z,0.60
2023-04-01T22:59:27.931Z,0.50
2023-04-01T23:01:59.377Z,0.60
2023-04-01T23:04:32.376Z,0.70
2023-04-01T23:07:04.931Z,0.80
2023-04-01T23:09:34.870Z,0.63
2023-04-01T23:12:05.549Z,0.47
2023-04-01T23:14:38.235Z,0.50
2023-04-01T23:17:14.891Z,0.47
2023-04-01T23:19:50.858Z,0.50
2023-04-01T23:22:25.530Z,0.60
2023-04-01T23:24:56.728Z,0.30
2023-04-01T23:27:31.611Z,0.40
2023-04-01T23:30:02.518Z,0.40
2023-04-01T23:32:32.766Z,0.40
2023-04-01T23:35:02.893Z,0.50
2023-04-01T23:37:32.006Z,0.50
2023-04-01T23:40:04.326Z,0.40
2023-04-01T23:42:35.089Z,0.63
2023-04-01T23:45:10.600Z,0.50
2023-04-01T23:47:42.124Z,0.60
2023-04-01T23:50:14.550Z,0.40
2023-04-01T23:52:46.463Z,0.50
2023-04-01T23:55:17.848Z,0.43
2023-04-01T23:58:03.599Z,0.40
